sensor_id;sensor_type;location;lat;lon;timestamp;P1;durP1;ratioP1;P2;durP2;ratioP2
29824;SDS011;16713;52.916;12.834;2023-09-19T00:00:21;5.35;;;2.83;;
29824;SDS011;16713;52.916;12.834;2023-09-19T00:02:56;2.90;;;2.20;;
29824;SDS011;16713;52.916;12.834;2023-09-19T00:05:26;3.15;;;2.45;;
29824;SDS011;16713;52.916;12.834;2023-09-19T00:07:56;7.30;;;2.85;;
29824;SDS011;16713;52.916;12.834;2023-09-19T00:10:27;6.67;;;2.83;;
29824;SDS011;16713;52.916;12.834;2023-09-19T00:12:57;6.55;;;2.60;;
29824;SDS011;16713;52.916;12.834;2023-09-19T00:15:35;4.53;;;2.53;;
29824;SDS011;16713;52.916;12.834;2023-09-19T00:18:16;6.65;;;2.60;;
29824;SDS011;16713;52.916;12.834;2023-09-19T00:20:47;5.43;;;2.53;;
29824;SDS011;16713;52.916;12.834;2023-09-19T00:23:15;5.47;;;2.38;;
29824;SDS011;16713;52.916;12.834;2023-09-19T00:25:41;5.03;;;2.13;;
29824;SDS011;16713;52.916;12.834;2023-09-19T00:28:08;7.45;;;2.50;;
29824;SDS011;16713;52.916;12.834;2023-09-19T00:30:36;6.60;;;2.80;;
29824;SDS011;16713;52.916;12.834;2023-09-19T00:33:04;2.90;;;2.50;;
29824;SDS011;16713;52.916;12.834;2023-09-19T00:35:33;9.30;;;2.72;;
29824;SDS011;16713;52.916;12.834;2023-09-19T00:38:00;4.72;;;2.50;;
29824;SDS011;16713;52.916;12.834;2023-09-19T00:40:27;4.97;;;2.47;;
29824;SDS011;16713;52.916;12.834;2023-09-19T00:42:57;5.22;;;2.65;;
29824;SDS011;16713;52.916;12.834;2023-09-19T00:45:27;4.40;;;2.42;;
29824;SDS011;16713;52.916;12.834;2023-09-19T00:47:54;10.10;;;2.33;;
29824;SDS011;16713;52.916;12.834;2023-09-19T00:50:24;4.35;;;2.53;;
29824;SDS011;16713;52.916;12.834;2023-09-19T00:52:53;8.45;;;2.60;;
29824;SDS011;16713;52.916;12.834;2023-09-19T00:55:24;7.25;;;2.55;;
29824;SDS011;16713;52.916;12.834;2023-09-19T00:57:51;6.32;;;2.33;;
29824;SDS011;16713;52.916;12.834;2023-09-19T01:00:19;3.30;;;2.10;;
29824;SDS011;16713;52.916;12.834;2023-09-19T01:02:47;6.65;;;2.25;;
29824;SDS011;16713;52.916;12.834;2023-09-19T01:05:14;6.95;;;2.25;;
29824;SDS011;16713;52.916;12.834;2023-09-19T01:07:41;5.60;;;2.65;;
29824;SDS011;16713;52.916;12.834;2023-09-19T01:10:08;4.00;;;2.22;;
29824;SDS011;16713;52.916;12.834;2023-09-19T01:18:28;4.70;;;2.45;;
29824;SDS011;16713;52.916;12.834;2023-09-19T01:21:26;2.28;;;1.80;;
29824;SDS011;16713;52.916;12.834;2023-09-19T01:29:38;4.35;;;2.22;;
29824;SDS011;16713;52.916;12.834;2023-09-19T01:32:10;3.75;;;2.10;;
29824;SDS011;16713;52.916;12.834;2023-09-19T01:34:56;10.07;;;2.08;;
29824;SDS011;16713;52.916;12.834;2023-09-19T01:37:30;3.80;;;1.70;;
29824;SDS011;16713;52.916;12.834;2023-09-19T01:39:59;5.43;;;2.35;;
29824;SDS011;16713;52.916;12.834;2023-09-19T01:42:41;5.10;;;2.38;;
29824;SDS011;16713;52.916;12.834;2023-09-19T01:45:12;3.83;;;2.17;;
29824;SDS011;16713;52.916;12.834;2023-09-19T01:47:46;5.65;;;2.50;;
29824;SDS011;16713;52.916;12.834;2023-09-19T01:50:17;3.13;;;2.00;;
29824;SDS011;16713;52.916;12.834;2023-09-19T01:52:57;4.05;;;2.00;;
29824;SDS011;16713;52.916;12.834;2023-09-19T01:55:27;3.67;;;2.45;;
29824;SDS011;16713;52.916;12.834;2023-09-19T01:58:16;4.50;;;2.15;;
29824;SDS011;16713;52.916;12.834;2023-09-19T02:00:49;4.25;;;2.13;;
29824;SDS011;16713;52.916;12.834;2023-09-19T02:05:51;8.00;;;2.35;;
29824;SDS011;16713;52.916;12.834;2023-09-19T02:08:20;3.83;;;2.25;;
29824;SDS011;16713;52.916;12.834;2023-09-19T02:13:19;2.90;;;1.58;;
29824;SDS011;16713;52.916;12.834;2023-09-19T02:15:46;4.78;;;1.95;;
29824;SDS011;16713;52.916;12.834;2023-09-19T02:18:13;4.32;;;2.45;;
29824;SDS011;16713;52.916;12.834;2023-09-19T02:20:40;3.85;;;1.88;;
29824;SDS011;16713;52.916;12.834;2023-09-19T02:23:07;3.65;;;1.83;;
29824;SDS011;16713;52.916;12.834;2023-09-19T02:25:34;2.15;;;1.55;;
29824;SDS011;16713;52.916;12.834;2023-09-19T02:28:01;5.15;;;1.77;;
29824;SDS011;16713;52.916;12.834;2023-09-19T02:30:29;2.72;;;1.58;;
29824;SDS011;16713;52.916;12.834;2023-09-19T02:32:56;2.30;;;1.50;;
29824;SDS011;16713;52.916;12.834;2023-09-19T02:35:22;2.22;;;1.50;;
29824;SDS011;16713;52.916;12.834;2023-09-19T02:37:49;3.78;;;1.58;;
29824;SDS011;16713;52.916;12.834;2023-09-19T02:40:16;1.85;;;1.40;;
29824;SDS011;16713;52.916;12.834;2023-09-19T02:42:46;3.30;;;1.58;;
29824;SDS011;16713;52.916;12.834;2023-09-19T02:45:19;1.38;;;1.00;;
29824;SDS011;16713;52.916;12.834;2023-09-19T02:47:46;2.05;;;1.45;;
29824;SDS011;16713;52.916;12.834;2023-09-19T02:50:14;2.83;;;1.10;;
29824;SDS011;16713;52.916;12.834;2023-09-19T02:52:44;2.42;;;1.20;;
29824;SDS011;16713;52.916;12.834;2023-09-19T02:55:16;1.70;;;1.20;;
29824;SDS011;16713;52.916;12.834;2023-09-19T03:00:23;1.92;;;1.30;;
29824;SDS011;16713;52.916;12.834;2023-09-19T03:02:52;1.40;;;1.30;;
29824;SDS011;16713;52.916;12.834;2023-09-19T03:05:23;1.40;;;1.13;;
29824;SDS011;16713;52.916;12.834;2023-09-19T03:07:50;0.80;;;0.80;;
29824;SDS011;16713;52.916;12.834;2023-09-19T03:10:19;2.85;;;1.25;;
29824;SDS011;16713;52.916;12.834;2023-09-19T03:12:47;1.67;;;1.20;;
29824;SDS011;16713;52.916;12.834;2023-09-19T03:15:14;2.28;;;1.17;;
29824;SDS011;16713;52.916;12.834;2023-09-19T03:17:44;1.60;;;1.13;;
29824;SDS011;16713;52.916;12.834;2023-09-19T03:20:14;2.25;;;0.90;;
29824;SDS011;16713;52.916;12.834;2023-09-19T03:22:44;1.33;;;1.10;;
29824;SDS011;16713;52.916;12.834;2023-09-19T03:25:11;2.53;;;1.42;;
29824;SDS011;16713;52.916;12.834;2023-09-19T03:27:38;0.80;;;0.80;;
29824;SDS011;16713;52.916;12.834;2023-09-19T03:30:05;1.98;;;1.00;;
29824;SDS011;16713;52.916;12.834;2023-09-19T03:32:45;1.98;;;0.90;;
29824;SDS011;16713;52.916;12.834;2023-09-19T03:35:13;5.07;;;1.40;;
29824;SDS011;16713;52.916;12.834;2023-09-19T03:37:41;3.72;;;1.60;;
29824;SDS011;16713;52.916;12.834;2023-09-19T03:40:08;2.63;;;1.23;;
29824;SDS011;16713;52.916;12.834;2023-09-19T03:42:40;4.72;;;1.23;;
29824;SDS011;16713;52.916;12.834;2023-09-19T03:45:08;3.17;;;1.27;;
29824;SDS011;16713;52.916;12.834;2023-09-19T03:47:42;2.28;;;1.38;;
29824;SDS011;16713;52.916;12.834;2023-09-19T03:50:08;3.50;;;1.67;;
29824;SDS011;16713;52.916;12.834;2023-09-19T03:52:37;2.42;;;1.20;;
29824;SDS011;16713;52.916;12.834;2023-09-19T03:55:04;1.52;;;1.27;;
29824;SDS011;16713;52.916;12.834;2023-09-19T03:57:31;2.08;;;1.50;;
29824;SDS011;16713;52.916;12.834;2023-09-19T03:59:57;2.47;;;1.40;;
29824;SDS011;16713;52.916;12.834;2023-09-19T04:02:24;1.90;;;1.10;;
29824;SDS011;16713;52.916;12.834;2023-09-19T04:04:51;4.22;;;1.55;;
29824;SDS011;16713;52.916;12.834;2023-09-19T04:07:18;4.55;;;1.55;;
29824;SDS011;16713;52.916;12.834;2023-09-19T04:09:45;1.80;;;1.35;;
29824;SDS011;16713;52.916;12.834;2023-09-19T04:12:12;3.45;;;1.65;;
29824;SDS011;16713;52.916;12.834;2023-09-19T04:14:39;3.50;;;1.30;;
29824;SDS011;16713;52.916;12.834;2023-09-19T04:17:05;1.90;;;1.40;;
29824;SDS011;16713;52.916;12.834;2023-09-19T04:19:36;1.70;;;1.50;;
29824;SDS011;16713;52.916;12.834;2023-09-19T04:22:03;2.05;;;1.42;;
29824;SDS011;16713;52.916;12.834;2023-09-19T04:24:30;1.98;;;1.27;;
29824;SDS011;16713;52.916;12.834;2023-09-19T04:26:58;2.55;;;1.52;;
29824;SDS011;16713;52.916;12.834;2023-09-19T04:29:25;2.05;;;1.70;;
29824;SDS011;16713;52.916;12.834;2023-09-19T04:31:56;3.92;;;1.63;;
29824;SDS011;16713;52.916;12.834;2023-09-19T04:34:25;2.53;;;1.60;;
29824;SDS011;16713;52.916;12.834;2023-09-19T04:36:52;5.20;;;1.77;;
29824;SDS011;16713;52.916;12.834;2023-09-19T04:39:19;3.38;;;1.92;;
29824;SDS011;16713;52.916;12.834;2023-09-19T04:41:47;5.25;;;1.80;;
29824;SDS011;16713;52.916;12.834;2023-09-19T04:44:14;2.63;;;1.75;;
29824;SDS011;16713;52.916;12.834;2023-09-19T04:46:42;3.55;;;1.90;;
29824;SDS011;16713;52.916;12.834;2023-09-19T04:49:08;5.88;;;1.70;;
29824;SDS011;16713;52.916;12.834;2023-09-19T04:51:35;3.47;;;1.98;;
29824;SDS011;16713;52.916;12.834;2023-09-19T04:54:03;5.60;;;1.80;;
29824;SDS011;16713;52.916;12.834;2023-09-19T04:56:29;3.63;;;1.77;;
29824;SDS011;16713;52.916;12.834;2023-09-19T04:58:56;3.80;;;2.00;;
29824;SDS011;16713;52.916;12.834;2023-09-19T05:01:24;5.65;;;2.05;;
29824;SDS011;16713;52.916;12.834;2023-09-19T05:03:52;3.05;;;2.00;;
29824;SDS011;16713;52.916;12.834;2023-09-19T05:06:19;4.28;;;2.22;;
29824;SDS011;16713;52.916;12.834;2023-09-19T05:08:49;6.07;;;2.13;;
29824;SDS011;16713;52.916;12.834;2023-09-19T05:11:20;5.88;;;2.45;;
29824;SDS011;16713;52.916;12.834;2023-09-19T05:13:48;4.65;;;3.10;;
29824;SDS011;16713;52.916;12.834;2023-09-19T05:16:16;6.30;;;2.72;;
29824;SDS011;16713;52.916;12.834;2023-09-19T05:18:43;5.18;;;2.00;;
29824;SDS011;16713;52.916;12.834;2023-09-19T05:21:10;3.97;;;2.55;;
29824;SDS011;16713;52.916;12.834;2023-09-19T05:23:36;5.55;;;2.60;;
29824;SDS011;16713;52.916;12.834;2023-09-19T05:26:06;7.28;;;2.95;;
29824;SDS011;16713;52.916;12.834;2023-09-19T05:28:32;3.42;;;2.38;;
29824;SDS011;16713;52.916;12.834;2023-09-19T05:31:01;4.00;;;2.40;;
29824;SDS011;16713;52.916;12.834;2023-09-19T05:33:30;3.58;;;2.40;;
29824;SDS011;16713;52.916;12.834;2023-09-19T05:35:58;4.72;;;2.60;;
29824;SDS011;16713;52.916;12.834;2023-09-19T05:38:24;5.45;;;2.30;;
29824;SDS011;16713;52.916;12.834;2023-09-19T05:40:54;5.68;;;2.70;;
29824;SDS011;16713;52.916;12.834;2023-09-19T05:43:20;2.80;;;2.17;;
29824;SDS011;16713;52.916;12.834;2023-09-19T05:45:48;6.13;;;2.90;;
29824;SDS011;16713;52.916;12.834;2023-09-19T05:48:14;10.18;;;3.33;;
29824;SDS011;16713;52.916;12.834;2023-09-19T05:50:42;4.72;;;2.80;;
29824;SDS011;16713;52.916;12.834;2023-09-19T05:53:10;3.75;;;2.92;;
29824;SDS011;16713;52.916;12.834;2023-09-19T05:55:41;2.58;;;2.22;;
29824;SDS011;16713;52.916;12.834;2023-09-19T05:58:08;3.65;;;2.33;;
29824;SDS011;16713;52.916;12.834;2023-09-19T06:00:36;4.32;;;2.53;;
29824;SDS011;16713;52.916;12.834;2023-09-19T06:03:05;8.75;;;2.67;;
29824;SDS011;16713;52.916;12.834;2023-09-19T06:05:32;5.80;;;3.20;;
29824;SDS011;16713;52.916;12.834;2023-09-19T06:07:58;7.38;;;2.83;;
29824;SDS011;16713;52.916;12.834;2023-09-19T06:10:34;5.22;;;2.75;;
29824;SDS011;16713;52.916;12.834;2023-09-19T06:13:04;5.30;;;2.63;;
29824;SDS011;16713;52.916;12.834;2023-09-19T06:15:32;5.65;;;3.13;;
29824;SDS011;16713;52.916;12.834;2023-09-19T06:17:59;7.97;;;3.25;;
29824;SDS011;16713;52.916;12.834;2023-09-19T06:20:26;8.57;;;3.28;;
29824;SDS011;16713;52.916;12.834;2023-09-19T06:22:53;3.28;;;2.72;;
29824;SDS011;16713;52.916;12.834;2023-09-19T06:25:20;6.40;;;2.88;;
29824;SDS011;16713;52.916;12.834;2023-09-19T06:27:49;4.47;;;3.08;;
29824;SDS011;16713;52.916;12.834;2023-09-19T06:30:18;6.85;;;3.20;;
29824;SDS011;16713;52.916;12.834;2023-09-19T06:32:44;6.40;;;2.95;;
29824;SDS011;16713;52.916;12.834;2023-09-19T06:35:12;7.22;;;2.50;;
29824;SDS011;16713;52.916;12.834;2023-09-19T06:37:39;8.00;;;3.35;;
29824;SDS011;16713;52.916;12.834;2023-09-19T06:42:42;5.32;;;2.70;;
29824;SDS011;16713;52.916;12.834;2023-09-19T06:45:14;8.80;;;3.33;;
29824;SDS011;16713;52.916;12.834;2023-09-19T06:47:45;5.80;;;2.70;;
29824;SDS011;16713;52.916;12.834;2023-09-19T06:50:22;10.15;;;3.35;;
29824;SDS011;16713;52.916;12.834;2023-09-19T06:52:50;5.35;;;2.67;;
29824;SDS011;16713;52.916;12.834;2023-09-19T06:55:18;6.72;;;2.85;;
29824;SDS011;16713;52.916;12.834;2023-09-19T06:57:46;4.03;;;2.75;;
29824;SDS011;16713;52.916;12.834;2023-09-19T07:00:13;7.20;;;2.95;;
29824;SDS011;16713;52.916;12.834;2023-09-19T07:03:00;6.00;;;2.63;;
29824;SDS011;16713;52.916;12.834;2023-09-19T07:05:34;7.40;;;2.80;;
29824;SDS011;16713;52.916;12.834;2023-09-19T07:08:06;7.75;;;3.17;;
29824;SDS011;16713;52.916;12.834;2023-09-19T07:10:34;4.63;;;2.90;;
29824;SDS011;16713;52.916;12.834;2023-09-19T07:13:01;6.32;;;2.92;;
29824;SDS011;16713;52.916;12.834;2023-09-19T07:15:31;5.40;;;2.80;;
29824;SDS011;16713;52.916;12.834;2023-09-19T07:18:05;4.28;;;2.42;;
29824;SDS011;16713;52.916;12.834;2023-09-19T07:20:32;8.40;;;3.13;;
29824;SDS011;16713;52.916;12.834;2023-09-19T07:23:00;5.50;;;3.45;;
29824;SDS011;16713;52.916;12.834;2023-09-19T07:25:27;6.35;;;2.80;;
29824;SDS011;16713;52.916;12.834;2023-09-19T07:27:55;6.53;;;2.50;;
29824;SDS011;16713;52.916;12.834;2023-09-19T07:30:22;6.20;;;3.10;;
29824;SDS011;16713;52.916;12.834;2023-09-19T07:32:49;4.78;;;2.78;;
29824;SDS011;16713;52.916;12.834;2023-09-19T07:35:16;4.18;;;2.60;;
29824;SDS011;16713;52.916;12.834;2023-09-19T07:37:42;7.75;;;3.10;;
29824;SDS011;16713;52.916;12.834;2023-09-19T07:40:09;4.00;;;2.58;;
29824;SDS011;16713;52.916;12.834;2023-09-19T07:42:36;7.10;;;2.47;;
29824;SDS011;16713;52.916;12.834;2023-09-19T07:45:05;5.03;;;2.50;;
29824;SDS011;16713;52.916;12.834;2023-09-19T07:47:32;5.82;;;2.85;;
29824;SDS011;16713;52.916;12.834;2023-09-19T07:49:59;5.47;;;2.55;;
29824;SDS011;16713;52.916;12.834;2023-09-19T07:52:28;9.75;;;3.55;;
29824;SDS011;16713;52.916;12.834;2023-09-19T07:54:55;6.65;;;2.65;;
29824;SDS011;16713;52.916;12.834;2023-09-19T07:57:24;11.20;;;2.97;;
29824;SDS011;16713;52.916;12.834;2023-09-19T07:59:51;6.10;;;2.42;;
29824;SDS011;16713;52.916;12.834;2023-09-19T08:02:17;7.68;;;2.80;;
29824;SDS011;16713;52.916;12.834;2023-09-19T08:04:45;8.73;;;3.25;;
29824;SDS011;16713;52.916;12.834;2023-09-19T08:07:12;5.25;;;2.45;;
29824;SDS011;16713;52.916;12.834;2023-09-19T08:09:39;7.10;;;2.95;;
29824;SDS011;16713;52.916;12.834;2023-09-19T08:12:06;7.22;;;2.20;;
29824;SDS011;16713;52.916;12.834;2023-09-19T08:14:36;7.00;;;2.78;;
29824;SDS011;16713;52.916;12.834;2023-09-19T08:17:07;7.00;;;2.63;;
29824;SDS011;16713;52.916;12.834;2023-09-19T08:19:34;8.75;;;2.70;;
29824;SDS011;16713;52.916;12.834;2023-09-19T08:22:02;5.22;;;2.17;;
29824;SDS011;16713;52.916;12.834;2023-09-19T08:24:29;8.15;;;2.75;;
29824;SDS011;16713;52.916;12.834;2023-09-19T08:26:57;7.05;;;2.40;;
29824;SDS011;16713;52.916;12.834;2023-09-19T08:29:24;9.23;;;2.45;;
29824;SDS011;16713;52.916;12.834;2023-09-19T08:31:54;3.40;;;2.33;;
29824;SDS011;16713;52.916;12.834;2023-09-19T08:34:22;5.63;;;2.55;;
29824;SDS011;16713;52.916;12.834;2023-09-19T08:36:50;7.90;;;2.35;;
29824;SDS011;16713;52.916;12.834;2023-09-19T08:39:24;5.32;;;2.95;;
29824;SDS011;16713;52.916;12.834;2023-09-19T08:41:58;8.38;;;2.58;;
29824;SDS011;16713;52.916;12.834;2023-09-19T08:44:25;4.10;;;2.60;;
29824;SDS011;16713;52.916;12.834;2023-09-19T08:46:54;5.50;;;3.25;;
29824;SDS011;16713;52.916;12.834;2023-09-19T08:52:20;4.97;;;2.60;;
29824;SDS011;16713;52.916;12.834;2023-09-19T08:54:51;4.75;;;2.47;;
29824;SDS011;16713;52.916;12.834;2023-09-19T08:57:21;7.32;;;3.08;;
29824;SDS011;16713;52.916;12.834;2023-09-19T08:59:49;8.77;;;2.78;;
29824;SDS011;16713;52.916;12.834;2023-09-19T09:02:16;5.03;;;2.28;;
29824;SDS011;16713;52.916;12.834;2023-09-19T09:04:45;8.07;;;2.80;;
29824;SDS011;16713;52.916;12.834;2023-09-19T09:07:14;4.45;;;2.13;;
29824;SDS011;16713;52.916;12.834;2023-09-19T09:09:40;7.15;;;4.35;;
29824;SDS011;16713;52.916;12.834;2023-09-19T09:12:09;5.00;;;2.35;;
29824;SDS011;16713;52.916;12.834;2023-09-19T09:14:46;7.00;;;3.13;;
29824;SDS011;16713;52.916;12.834;2023-09-19T09:17:15;7.32;;;3.08;;
29824;SDS011;16713;52.916;12.834;2023-09-19T09:19:42;6.22;;;2.50;;
29824;SDS011;16713;52.916;12.834;2023-09-19T09:22:10;13.07;;;4.75;;
29824;SDS011;16713;52.916;12.834;2023-09-19T09:24:37;10.65;;;2.85;;
29824;SDS011;16713;52.916;12.834;2023-09-19T09:27:20;6.13;;;2.95;;
29824;SDS011;16713;52.916;12.834;2023-09-19T09:29:50;5.95;;;3.35;;
29824;SDS011;16713;52.916;12.834;2023-09-19T09:34:48;10.50;;;3.00;;
29824;SDS011;16713;52.916;12.834;2023-09-19T09:37:17;10.98;;;3.45;;
29824;SDS011;16713;52.916;12.834;2023-09-19T09:39:55;8.88;;;2.92;;
29824;SDS011;16713;52.916;12.834;2023-09-19T09:42:33;4.97;;;2.80;;
29824;SDS011;16713;52.916;12.834;2023-09-19T09:53:24;9.65;;;4.00;;
29824;SDS011;16713;52.916;12.834;2023-09-19T09:56:05;6.53;;;2.50;;
29824;SDS011;16713;52.916;12.834;2023-09-19T09:58:33;6.88;;;3.60;;
29824;SDS011;16713;52.916;12.834;2023-09-19T10:01:06;8.95;;;3.75;;
29824;SDS011;16713;52.916;12.834;2023-09-19T10:03:40;6.90;;;2.70;;
29824;SDS011;16713;52.916;12.834;2023-09-19T10:06:11;8.00;;;3.20;;
29824;SDS011;16713;52.916;12.834;2023-09-19T10:11:47;4.65;;;2.67;;
29824;SDS011;16713;52.916;12.834;2023-09-19T10:14:24;8.73;;;3.13;;
29824;SDS011;16713;52.916;12.834;2023-09-19T10:16:59;6.90;;;3.40;;
29824;SDS011;16713;52.916;12.834;2023-09-19T10:19:30;10.02;;;2.97;;
29824;SDS011;16713;52.916;12.834;2023-09-19T10:22:03;7.78;;;2.67;;
29824;SDS011;16713;52.916;12.834;2023-09-19T10:24:33;9.55;;;2.50;;
29824;SDS011;16713;52.916;12.834;2023-09-19T10:27:11;9.20;;;4.35;;
29824;SDS011;16713;52.916;12.834;2023-09-19T10:29:38;5.88;;;2.30;;
29824;SDS011;16713;52.916;12.834;2023-09-19T10:32:05;5.72;;;2.90;;
29824;SDS011;16713;52.916;12.834;2023-09-19T10:34:35;5.60;;;2.70;;
29824;SDS011;16713;52.916;12.834;2023-09-19T10:37:02;4.97;;;2.50;;
29824;SDS011;16713;52.916;12.834;2023-09-19T10:39:32;7.32;;;3.10;;
29824;SDS011;16713;52.916;12.834;2023-09-19T10:42:01;7.55;;;3.35;;
29824;SDS011;16713;52.916;12.834;2023-09-19T10:44:32;7.45;;;2.95;;
29824;SDS011;16713;52.916;12.834;2023-09-19T10:47:00;6.60;;;3.05;;
29824;SDS011;16713;52.916;12.834;2023-09-19T10:49:27;5.45;;;3.03;;
29824;SDS011;16713;52.916;12.834;2023-09-19T10:51:54;5.07;;;3.10;;
29824;SDS011;16713;52.916;12.834;2023-09-19T10:54:26;11.57;;;2.58;;
29824;SDS011;16713;52.916;12.834;2023-09-19T10:56:58;6.15;;;2.53;;
29824;SDS011;16713;52.916;12.834;2023-09-19T10:59:25;4.78;;;2.55;;
29824;SDS011;16713;52.916;12.834;2023-09-19T11:02:15;4.55;;;2.58;;
29824;SDS011;16713;52.916;12.834;2023-09-19T11:04:45;4.05;;;2.78;;
29824;SDS011;16713;52.916;12.834;2023-09-19T11:07:14;8.50;;;2.70;;
29824;SDS011;16713;52.916;12.834;2023-09-19T11:16:02;6.43;;;2.45;;
29824;SDS011;16713;52.916;12.834;2023-09-19T11:26:42;6.93;;;2.20;;
29824;SDS011;16713;52.916;12.834;2023-09-19T11:29:32;7.32;;;2.33;;
29824;SDS011;16713;52.916;12.834;2023-09-19T11:31:59;5.80;;;2.10;;
29824;SDS011;16713;52.916;12.834;2023-09-19T11:40:07;7.07;;;2.22;;
29824;SDS011;16713;52.916;12.834;2023-09-19T11:42:42;5.68;;;2.13;;
29824;SDS011;16713;52.916;12.834;2023-09-19T11:48:15;7.07;;;1.80;;
29824;SDS011;16713;52.916;12.834;2023-09-19T11:50:45;7.47;;;2.17;;
29824;SDS011;16713;52.916;12.834;2023-09-19T11:53:13;5.82;;;2.15;;
29824;SDS011;16713;52.916;12.834;2023-09-19T11:55:43;4.22;;;1.73;;
29824;SDS011;16713;52.916;12.834;2023-09-19T11:58:12;4.72;;;1.85;;
29824;SDS011;16713;52.916;12.834;2023-09-19T12:00:41;4.35;;;1.80;;
29824;SDS011;16713;52.916;12.834;2023-09-19T12:03:11;2.92;;;1.83;;
29824;SDS011;16713;52.916;12.834;2023-09-19T12:05:40;3.42;;;1.60;;
29824;SDS011;16713;52.916;12.834;2023-09-19T12:08:07;9.00;;;2.22;;
29824;SDS011;16713;52.916;12.834;2023-09-19T12:10:47;8.13;;;2.22;;
29824;SDS011;16713;52.916;12.834;2023-09-19T12:13:16;5.15;;;1.80;;
29824;SDS011;16713;52.916;12.834;2023-09-19T12:15:45;6.93;;;2.30;;
29824;SDS011;16713;52.916;12.834;2023-09-19T12:18:27;6.25;;;2.25;;
29824;SDS011;16713;52.916;12.834;2023-09-19T12:20:54;6.00;;;2.20;;
29824;SDS011;16713;52.916;12.834;2023-09-19T12:23:21;5.07;;;1.80;;
29824;SDS011;16713;52.916;12.834;2023-09-19T12:25:48;6.25;;;2.08;;
29824;SDS011;16713;52.916;12.834;2023-09-19T12:28:19;9.68;;;1.92;;
29824;SDS011;16713;52.916;12.834;2023-09-19T12:30:48;6.85;;;2.88;;
29824;SDS011;16713;52.916;12.834;2023-09-19T12:33:18;9.85;;;2.08;;
29824;SDS011;16713;52.916;12.834;2023-09-19T12:35:51;3.97;;;1.60;;
29824;SDS011;16713;52.916;12.834;2023-09-19T12:38:28;5.57;;;1.83;;
29824;SDS011;16713;52.916;12.834;2023-09-19T12:40:55;5.20;;;2.05;;
29824;SDS011;16713;52.916;12.834;2023-09-19T12:43:25;6.60;;;1.95;;
29824;SDS011;16713;52.916;12.834;2023-09-19T12:45:53;6.32;;;1.90;;
29824;SDS011;16713;52.916;12.834;2023-09-19T12:48:23;4.57;;;1.77;;
29824;SDS011;16713;52.916;12.834;2023-09-19T12:51:08;10.00;;;2.35;;
29824;SDS011;16713;52.916;12.834;2023-09-19T12:56:10;3.53;;;1.63;;
29824;SDS011;16713;52.916;12.834;2023-09-19T12:58:55;2.95;;;1.58;;
29824;SDS011;16713;52.916;12.834;2023-09-19T13:01:23;4.72;;;1.50;;
29824;SDS011;16713;52.916;12.834;2023-09-19T13:07:00;4.55;;;1.70;;
29824;SDS011;16713;52.916;12.834;2023-09-19T13:09:28;6.28;;;2.35;;
29824;SDS011;16713;52.916;12.834;2023-09-19T13:12:00;6.40;;;1.83;;
29824;SDS011;16713;52.916;12.834;2023-09-19T13:14:29;4.40;;;1.88;;
29824;SDS011;16713;52.916;12.834;2023-09-19T13:17:07;4.00;;;1.92;;
29824;SDS011;16713;52.916;12.834;2023-09-19T13:19:46;7.93;;;2.58;;
29824;SDS011;16713;52.916;12.834;2023-09-19T13:25:21;4.22;;;1.60;;
29824;SDS011;16713;52.916;12.834;2023-09-19T13:27:52;5.00;;;1.85;;
29824;SDS011;16713;52.916;12.834;2023-09-19T13:30:22;5.45;;;1.92;;
29824;SDS011;16713;52.916;12.834;2023-09-19T13:32:52;5.25;;;2.42;;
29824;SDS011;16713;52.916;12.834;2023-09-19T13:35:20;6.00;;;1.80;;
29824;SDS011;16713;52.916;12.834;2023-09-19T13:37:46;6.03;;;1.90;;
29824;SDS011;16713;52.916;12.834;2023-09-19T13:40:17;7.95;;;1.83;;
29824;SDS011;16713;52.916;12.834;2023-09-19T13:42:44;5.75;;;2.13;;
29824;SDS011;16713;52.916;12.834;2023-09-19T13:45:10;6.10;;;1.92;;
29824;SDS011;16713;52.916;12.834;2023-09-19T13:47:39;4.18;;;1.80;;
29824;SDS011;16713;52.916;12.834;2023-09-19T13:50:06;6.93;;;2.25;;
29824;SDS011;16713;52.916;12.834;2023-09-19T13:52:34;6.53;;;1.75;;
29824;SDS011;16713;52.916;12.834;2023-09-19T13:55:00;4.80;;;1.58;;
29824;SDS011;16713;52.916;12.834;2023-09-19T13:57:27;8.98;;;1.60;;
29824;SDS011;16713;52.916;12.834;2023-09-19T13:59:55;7.85;;;2.08;;
29824;SDS011;16713;52.916;12.834;2023-09-19T14:02:22;3.50;;;1.98;;
29824;SDS011;16713;52.916;12.834;2023-09-19T14:04:52;4.90;;;1.95;;
29824;SDS011;16713;52.916;12.834;2023-09-19T14:07:19;3.83;;;1.73;;
29824;SDS011;16713;52.916;12.834;2023-09-19T14:09:46;6.22;;;1.85;;
29824;SDS011;16713;52.916;12.834;2023-09-19T14:12:13;3.80;;;1.80;;
29824;SDS011;16713;52.916;12.834;2023-09-19T14:14:40;9.35;;;1.85;;
29824;SDS011;16713;52.916;12.834;2023-09-19T14:17:07;5.45;;;2.17;;
29824;SDS011;16713;52.916;12.834;2023-09-19T14:19:33;3.15;;;2.00;;
29824;SDS011;16713;52.916;12.834;2023-09-19T14:22:01;3.00;;;1.40;;
29824;SDS011;16713;52.916;12.834;2023-09-19T14:24:33;7.05;;;2.20;;
29824;SDS011;16713;52.916;12.834;2023-09-19T14:27:01;8.93;;;3.05;;
29824;SDS011;16713;52.916;12.834;2023-09-19T14:29:30;7.18;;;2.35;;
29824;SDS011;16713;52.916;12.834;2023-09-19T14:31:57;8.77;;;2.17;;
29824;SDS011;16713;52.916;12.834;2023-09-19T14:34:24;7.95;;;2.25;;
29824;SDS011;16713;52.916;12.834;2023-09-19T14:36:51;6.18;;;2.00;;
29824;SDS011;16713;52.916;12.834;2023-09-19T14:39:17;7.38;;;1.95;;
29824;SDS011;16713;52.916;12.834;2023-09-19T14:41:45;4.50;;;2.00;;
29824;SDS011;16713;52.916;12.834;2023-09-19T14:44:12;4.28;;;2.05;;
29824;SDS011;16713;52.916;12.834;2023-09-19T14:46:39;6.70;;;2.40;;
29824;SDS011;16713;52.916;12.834;2023-09-19T14:49:06;6.05;;;2.05;;
29824;SDS011;16713;52.916;12.834;2023-09-19T14:51:33;5.97;;;2.30;;
29824;SDS011;16713;52.916;12.834;2023-09-19T14:54:02;6.90;;;2.25;;
29824;SDS011;16713;52.916;12.834;2023-09-19T14:56:29;4.47;;;2.13;;
29824;SDS011;16713;52.916;12.834;2023-09-19T14:58:57;5.68;;;2.33;;
29824;SDS011;16713;52.916;12.834;2023-09-19T15:01:24;7.30;;;2.50;;
29824;SDS011;16713;52.916;12.834;2023-09-19T15:03:50;5.45;;;2.40;;
29824;SDS011;16713;52.916;12.834;2023-09-19T15:06:17;5.70;;;2.20;;
29824;SDS011;16713;52.916;12.834;2023-09-19T15:08:46;8.00;;;2.30;;
29824;SDS011;16713;52.916;12.834;2023-09-19T15:11:14;7.95;;;2.00;;
29824;SDS011;16713;52.916;12.834;2023-09-19T15:13:44;6.47;;;2.22;;
29824;SDS011;16713;52.916;12.834;2023-09-19T15:16:12;5.55;;;2.03;;
29824;SDS011;16713;52.916;12.834;2023-09-19T15:18:42;7.10;;;2.60;;
29824;SDS011;16713;52.916;12.834;2023-09-19T15:21:12;8.68;;;2.53;;
29824;SDS011;16713;52.916;12.834;2023-09-19T15:23:40;6.22;;;2.20;;
29824;SDS011;16713;52.916;12.834;2023-09-19T15:26:10;5.07;;;2.72;;
29824;SDS011;16713;52.916;12.834;2023-09-19T15:28:38;6.82;;;2.58;;
29824;SDS011;16713;52.916;12.834;2023-09-19T15:31:07;5.72;;;3.03;;
29824;SDS011;16713;52.916;12.834;2023-09-19T15:33:36;6.72;;;2.33;;
29824;SDS011;16713;52.916;12.834;2023-09-19T15:38:31;7.32;;;2.03;;
29824;SDS011;16713;52.916;12.834;2023-09-19T15:41:20;6.05;;;2.30;;
29824;SDS011;16713;52.916;12.834;2023-09-19T15:43:47;5.15;;;2.08;;
29824;SDS011;16713;52.916;12.834;2023-09-19T15:46:13;9.05;;;2.45;;
29824;SDS011;16713;52.916;12.834;2023-09-19T15:48:41;6.03;;;2.35;;
29824;SDS011;16713;52.916;12.834;2023-09-19T15:51:08;6.00;;;2.05;;
29824;SDS011;16713;52.916;12.834;2023-09-19T15:53:45;6.72;;;2.17;;
29824;SDS011;16713;52.916;12.834;2023-09-19T15:56:16;6.13;;;2.63;;
29824;SDS011;16713;52.916;12.834;2023-09-19T15:58:44;5.75;;;2.50;;